Jerome, Florida
Current Conditions -  °F | °C
As of 4:55 PM on Friday 28 Nov 2014 (Local Time) from KMKY Reporting Station
Clear Clear  
Wind Chill: 64°   Ceiling: Unl
Heat Index: 64°   Visibility: 10mi
Dew Point: 34°   Wind: 9mph
Humidity: 32%   Direction: 40°NE
Pressure: 30.19"   Gusts: NA
Location:  25.8666°N, 81.0856°W
Report Text: KMKY 282155Z 04008KT 10SM CLR 18/01 A3019 RMK AO1
Loading
Personal Weather Stations






























Interactive Weather Map New forecast layout! Learn more

10-Day Weather Forecast

Advertisements
Track Severe Weather on mobile